Bessie Ellen — ZITL7 — position and weather

sailwx.info

Track history (hours):
 
Tides and Currents Weather Stations Pressure Air Temp Water Temp Dewpoint Dewpoint Depression Visibility Wind Speed Wind Dir Waves Ship Positions

Bessie Ellen

Ship's website: http://bessie-ellen.com/blog/

Last reported at 2017-Jul-27 18:49 UTC. Time now 2017-Jul-28 06:39 UTC.
Position N 56°25' W 005°29'.

Length 28 m.

Type: Sailing vessel. MMSI: 235005952.

Date/timePositionNaut miles runAvg speedWind from/ knotsBaromVisibWave heightAir tempDewpointWater temp
2017-Jul-27 18:49N 56°25' W 005°29'0 0.0
2017-Jul-27 17:21N 56°25' W 005°29'0 0.0
2017-Jul-27 16:21N 56°25' W 005°29'0 0.0
2017-Jul-27 15:32N 56°25' W 005°29'0 0.0
2017-Jul-27 15:27N 56°25' W 005°29'0 0.0
2017-Jul-27 15:00N 56°25' W 005°29'0 0.0
2017-Jul-27 13:59N 56°25' W 005°29'0 0.0
2017-Jul-27 13:30N 56°25' W 005°29'1 2.8
2017-Jul-27 13:00N 56°26' W 005°30'2 4.1
2017-Jul-27 12:31N 56°28' W 005°28'1 2.1
2017-Jul-27 12:00N 56°29' W 005°30'0 1.0
2017-Jul-27 11:30N 56°29' W 005°29'1 2.6
2017-Jul-27 11:00N 56°30' W 005°28'2 3.6
2017-Jul-27 10:30N 56°32' W 005°26'2 4.8
2017-Jul-27 10:00N 56°34' W 005°25'2 4.1
2017-Jul-27 09:30N 56°36' W 005°26'3 2.8
2017-Jul-27 08:33N 56°37' W 005°31'0 0.1
2017-Jul-27 08:30N 56°37' W 005°31'0 0.0
2017-Jul-27 08:00N 56°37' W 005°31'0 0.0
2017-Jul-27 06:14N 56°37' W 005°31'0 0.0
2017-Jul-27 01:53N 56°37' W 005°31'0 0.0
2017-Jul-27 01:29N 56°37' W 005°31'0 0.0
2017-Jul-27 00:54N 56°37' W 005°31'0 0.0
2017-Jul-27 00:09N 56°37' W 005°31'0 0.0
2017-Jul-26 23:52N 56°37' W 005°31'0 0.0
2017-Jul-26 23:15N 56°37' W 005°31'0 0.0
2017-Jul-26 22:55N 56°37' W 005°31'0 0.0
2017-Jul-26 22:27N 56°37' W 005°31'0 0.0
2017-Jul-26 21:59N 56°37' W 005°31'0 0.0
2017-Jul-26 21:25N 56°37' W 005°31'0 0.0
2017-Jul-26 20:55N 56°37' W 005°31'0 0.0
2017-Jul-26 20:29N 56°37' W 005°31'0 0.0
2017-Jul-26 19:57N 56°37' W 005°31'0 0.0
2017-Jul-26 19:16N 56°37' W 005°31'0 0.0
2017-Jul-26 18:59N 56°37' W 005°31'0 0.0
2017-Jul-26 17:34N 56°37' W 005°31'0 0.1
2017-Jul-26 17:27N 56°37' W 005°31'0 0.0
2017-Jul-26 16:58N 56°37' W 005°31'1 1.7
2017-Jul-26 16:18N 56°36' W 005°29'2 5.3
2017-Jul-26 16:00N 56°35' W 005°30'2 3.0
2017-Jul-26 15:29N 56°34' W 005°32'1 3.0
2017-Jul-26 15:00N 56°32' W 005°33'6 0.3
2017-Jul-25 18:35N 56°28' W 005°41'  
2017-Jul-22 15:04N 56°30' W 005°42'1 6.1
2017-Jul-22 14:51N 56°29' W 005°41'5 6.3
2017-Jul-22 14:00N 56°26' W 005°32'2 0.1
2017-Jul-21 06:42N 56°25' W 005°29'1 0.1
2017-Jul-20 19:45N 56°25' W 005°31'0 0.0
2017-Jul-20 18:57N 56°25' W 005°31'0 0.0
2017-Jul-20 17:02N 56°25' W 005°31'0 0.2
2017-Jul-20 16:57N 56°25' W 005°31'1 2.4
2017-Jul-20 16:29N 56°26' W 005°32'3 5.7
2017-Jul-20 16:00N 56°27' W 005°37'4 0.1
2017-Jul-18 17:27N 56°30' W 005°43'1 2.4
2017-Jul-18 16:58N 56°29' W 005°41'1 2.5
2017-Jul-18 16:29N 56°28' W 005°39'1 2.6
2017-Jul-18 15:57N 56°28' W 005°37'1 3.2
2017-Jul-18 15:30N 56°27' W 005°35'2 4.7
2017-Jul-18 15:00N 56°26' W 005°31'  
Track history (hours):
 
Tides and Currents Weather Stations Pressure Air Temp Water Temp Dewpoint Dewpoint Depression Visibility Wind Speed Wind Dir Waves Ship Positions

Bessie Ellen

Ship's website: http://bessie-ellen.com/blog/

Last reported at 2017-Jul-27 18:49 UTC. Time now 2017-Jul-28 06:39 UTC.
Position N 56°25' W 005°29'.

Length 28 m.

Type: Sailing vessel. MMSI: 235005952.

Date/timePositionNaut miles runAvg speedWind from/ knotsBaromVisibWave heightAir tempDewpointWater temp
2017-Jul-27 18:49N 56°25' W 005°29'0 0.0
2017-Jul-27 17:21N 56°25' W 005°29'0 0.0
2017-Jul-27 16:21N 56°25' W 005°29'0 0.0
2017-Jul-27 15:32N 56°25' W 005°29'0 0.0
2017-Jul-27 15:27N 56°25' W 005°29'0 0.0
2017-Jul-27 15:00N 56°25' W 005°29'0 0.0
2017-Jul-27 13:59N 56°25' W 005°29'0 0.0
2017-Jul-27 13:30N 56°25' W 005°29'1 2.8
2017-Jul-27 13:00N 56°26' W 005°30'2 4.1
2017-Jul-27 12:31N 56°28' W 005°28'1 2.1
2017-Jul-27 12:00N 56°29' W 005°30'0 1.0
2017-Jul-27 11:30N 56°29' W 005°29'1 2.6
2017-Jul-27 11:00N 56°30' W 005°28'2 3.6
2017-Jul-27 10:30N 56°32' W 005°26'2 4.8
2017-Jul-27 10:00N 56°34' W 005°25'2 4.1
2017-Jul-27 09:30N 56°36' W 005°26'3 2.8
2017-Jul-27 08:33N 56°37' W 005°31'0 0.1
2017-Jul-27 08:30N 56°37' W 005°31'0 0.0
2017-Jul-27 08:00N 56°37' W 005°31'0 0.0
2017-Jul-27 06:14N 56°37' W 005°31'0 0.0
2017-Jul-27 01:53N 56°37' W 005°31'0 0.0
2017-Jul-27 01:29N 56°37' W 005°31'0 0.0
2017-Jul-27 00:54N 56°37' W 005°31'0 0.0
2017-Jul-27 00:09N 56°37' W 005°31'0 0.0
2017-Jul-26 23:52N 56°37' W 005°31'0 0.0
2017-Jul-26 23:15N 56°37' W 005°31'0 0.0
2017-Jul-26 22:55N 56°37' W 005°31'0 0.0
2017-Jul-26 22:27N 56°37' W 005°31'0 0.0
2017-Jul-26 21:59N 56°37' W 005°31'0 0.0
2017-Jul-26 21:25N 56°37' W 005°31'0 0.0
2017-Jul-26 20:55N 56°37' W 005°31'0 0.0
2017-Jul-26 20:29N 56°37' W 005°31'0 0.0
2017-Jul-26 19:57N 56°37' W 005°31'0 0.0
2017-Jul-26 19:16N 56°37' W 005°31'0 0.0
2017-Jul-26 18:59N 56°37' W 005°31'0 0.0
2017-Jul-26 17:34N 56°37' W 005°31'0 0.1
2017-Jul-26 17:27N 56°37' W 005°31'0 0.0
2017-Jul-26 16:58N 56°37' W 005°31'1 1.7
2017-Jul-26 16:18N 56°36' W 005°29'2 5.3
2017-Jul-26 16:00N 56°35' W 005°30'2 3.0
2017-Jul-26 15:29N 56°34' W 005°32'1 3.0
2017-Jul-26 15:00N 56°32' W 005°33'6 0.3
2017-Jul-25 18:35N 56°28' W 005°41'  
2017-Jul-22 15:04N 56°30' W 005°42'1 6.1
2017-Jul-22 14:51N 56°29' W 005°41'5 6.3
2017-Jul-22 14:00N 56°26' W 005°32'2 0.1
2017-Jul-21 06:42N 56°25' W 005°29'1 0.1
2017-Jul-20 19:45N 56°25' W 005°31'0 0.0
2017-Jul-20 18:57N 56°25' W 005°31'0 0.0
2017-Jul-20 17:02N 56°25' W 005°31'0 0.2
2017-Jul-20 16:57N 56°25' W 005°31'1 2.4
2017-Jul-20 16:29N 56°26' W 005°32'3 5.7
2017-Jul-20 16:00N 56°27' W 005°37'4 0.1
2017-Jul-18 17:27N 56°30' W 005°43'1 2.4
2017-Jul-18 16:58N 56°29' W 005°41'1 2.5
2017-Jul-18 16:29N 56°28' W 005°39'1 2.6
2017-Jul-18 15:57N 56°28' W 005°37'1 3.2
2017-Jul-18 15:30N 56°27' W 005°35'2 4.7
2017-Jul-18 15:00N 56°26' W 005°31'  

Dump ship's entire track history